SMRA90 UAOL 191500
AAXX 19151
91929 24473 /0712 10271 20236 30115 40118 55003 700// 333 4//// 69907 90710 91119 555 60005=
92035 41570 80000 10247 20235 30012 40070 58017 70321 885//=
93339 46/// /0903 10158 20149 39251 57005=
93985 46397 /2806 10169 20167 30137 40153 57012=
94106 46/// /1302 10254 20244 30039 40057=
94108 46/// /3105 10283 20241 30043 40055=
94109 46/// /0000 10253 20244 30043 40055=
94110 46/// /0000 10262 20260 30048 40058=
94341 46/// /0705 10280 20050 39837 40067=
94344 46/// /0904 10291 20112 39870 40069=
94348 46/// /2801 10312 20125=
94349 46/// /1307 10291 20116=
94395 46/// /0304 10240 20135 39795 40097=
94417 46/// /1508 10293 20158 39777 40080=
94429 46/// /1207 10310 20173 39619 40067=
94450 46/// /1111 10271 20134 39686 40096=
94628 46/// /1113 10143 20095 39782 40148=
94641 46/// /1110 10144 20088 39791 40158=
94644 46/// /1517 10202 20166 30153 40157=
94782 46/// /2101 10161 20148=
94875 46/// /1606 10253 20044 39974 40106=
94943 46/// /0803 10156 20040 39440 40145=
94988 46/// /1102 10146 20104 30150 40158=
95111 46/// /1203 10257 20232 30024 40057=
95204 46/// /2604 10273=
95214 46/// /0303 10278 2//// 30050 40055=
95283 46/// /2005 10246 20239 30075 40082=
95305 46/// /2810 10291 20247 30056 40068=
95317 46/// /0102 10254 20215 39852 40053=
95322 46/// /0410 10317 20179 39684 40054=
95402 46/// /1807 10247 20193 30037 40076=
95480 46/// /2003 10281 21039 30024 40081=
95482 46/// /0000 10331 20071 30020 40072=
95485 46/// /1803 10285 21106 39884 40082=
95492 46/// /1304 10329 21014 39924 40073=
95602 46/// /1612=
95612 46/// /1605 10192 20166 30024 40109=
95625 46/// /1313 10231 20112 39868 40114=
95632 46/// /0905 10179 20098 39944 40151=
95634 46/// /1109 10259 20113 39718 40108=
95635 46/// /0911 10178 2//// 30140 40172=
95637 46/// /1209 10155 20103 39822 40149=
95639 46/// /1011 10164 20105=
95642 46/// /1010 10183 20118 39849 40149=
95644 46/// /1111 10142 20142 39912 40166=
95647 46/// /0807 10146 20102 30079 40165=
95675 46/// /2316=
95756 46/// /0503=
95826 46/// /1315 10187 30131 40133=
95832 46/// /1307 10198 20140=
95839 46/// /1605 10208 20109 39944 40099=
95864 46/// /2109=
95966 46/// /1710 10150 20118 39942 40139=



SMUS90 KWBC 191500
AAXX 19154
91517 31475 11806 10250 20220 40071 57024 70500 81100 333 56000 81815=
91520 32480 30000 10246 20227 40072 58022 81235 333 56999 81814 83280=
91582 24480 73609 10263 20230 30040 40076 58029 700// 333 4//// 60007 90710 91117 555 60005=
91587 24469 73614 10263 20236 30027 40081 55023 700// 333 4//// 60017 90710 91124 555 60005=
91590 24964 /0000 10224 20221 30071 40084 56019 700// 333 4//// 60007 90710 91105 555 60005=
91596 24760 83206 10237 20229 39968 40087 56016 700// 333 4//// 60007 90710 91110 555 60005=
91754 26/// ///// 10263 20241 30054 40095 56016 555 60005=
91792 41498 10000 10257 20247 40152 56007 70100 81100 333 569// 81818=
91843 41498 60909 10270 20235 40145 56007 71322 83301 333 562/9 82816 83923 85079=
91925 22586 30402 10219 20195 30050 40111 53006 83200 333 56200 60007 83823 90710 91105 555 60005 10207 59003=
91938 24682 /1203 10249 20226 30118 40120 56007 700// 333 69967 90710 91110 555 69905 10810 59009=
91944 24562 /0918 10274 20224 30138 40141 53005 700// 333 4//// 60007 90710 91123 555 60005=
91948 22582 21606 10244 20213 30077 40179 53004 82200 333 56300 60007 82820 90710 91113 555 60005 11413 59019=
91954 24570 60809 10257 20218 30175 40178 55002 700// 333 4//// 60007 90710 91117 555 60005 10618 59002=
91958 22475 70307 10238 20215 30213 40215 55000 878// 333 56299 60007 86815 90710 91116 555 60005 10717 59004=
93023 46/// /0708 10202 20196 30071 40171 57016=
93069 46/// /0414 10206 20197 30093 40175 57015=
93110 47/97 /0209 10203 20189 30161 40170 57019=
93186 47497 /3606 10210 20196 30179 40183 57012=
93196 46/// /3112 10198 20187 30134 40187 57010=
93201 46/// /0607 10194 20172 30148 40177 57005=
93245 47498 /0501 10178 20165 39713 40188 57009=
93292 47/98 /3207 10194 20163 30163 40168 57014=
93309 47497 /0405 10207 20198 30140 40175 57004=
93373 47/98 /2903 10203 20164 30158 40161 57010=
93404 47598 /3401 10198 20190 30111 40166 57010=
93420 47498 /3608 10204 20189 30156 40163 57007=
93439 47499 /3517 10206 20179 30135 40150 57007=
93498 46/// /3226 10211 20167 39999 40137 57025=
93515 47498 /1404 10163 20160 30169 40174 52001=
93527 46/// /3006 10187 20183 30159 40165 57005=
93546 47598 /2303 10196 20178 30152 40158 57007=
93597 46/// /3426 10174 20138 30113 40119 57020=
93615 47497 /0601 10184 20177 30114 40169 57003=
93678 47090 /2311 10150 20145 39982 40109 57020=
93709 46/// /1302 10171 20165 30163 40164 57003=
93747 46/// /3009 10194 20071 39561 40117 52002=
93773 47998 /3206 10167 20166 30054 40086 57016=
93781 47397 /0506 10163 20154 30059 40104 57020=
93831 47/98 /0602 10159 20094 39705 40123 52003=
93845 47997 /2104 10155 20153 30092 40093 52004=
93891 47091 /2201 10146 20145 30088 40091 57001=
93994 46/// /1208 10222 20202 30112 40168 57015=
94103 46/// /0000 10293 30055 40060=
94105 46/// /0000 10245 20238 30037 40058=
94120 46/// /1107 10243 20231 30022 40061=
94122 46/// /3207 10276 20240 30047 40055=
94131 46/// /3301 10250 20238 39907 40057=
94147 46/// /3416 10289 20255 30034 40056=
94150 46/// /3415 10280 20249 39990 40050=
94170 46/// /0703 10250 20236 30048 40069=
94200 46/// /2608 10294 20266 30044 40053=
94203 46/// /2607 10300 20264 30041 40051=
94204 46/// /0109 10285 20236 39963 40050=
94206 46/// /0902 10254 20236 39919 40046=
94207 46/// /2306 10299 30051 40059 51006=
94212 46/// /0000 10262 20210 39599 40047=
94216 46/// /0204 10280 20258 30010 40060=
94238 46/// /0109 10243 20226 39658 40072=
94248 46/// /1118 10252 20234 30046 40060=
94255 46/// /0205 10284 20173 39806 40062=
94268 46/// /3604 10241 20231 30068 40080=
94287 46/// /1710 10246 20217 30083 40092=
94294 46/// /1306 10246 20181 30090 40100=
94298 46/// /1318 10263 30084 40090 58019=
94299 46/// /1119 10270 20243 30066 40077=
94300 46/// /1909 10277 20219 30061 40071=
94302 46/// /2608 10298 20209 30060 40066=
94306 46/// /2304 10291 20279 30056 40069=
94307 46/// /2510 10286 20272 30035 40068=
94308 46/// /2508 10301 20243 30058 40070=
94312 46/// /2709 10288 20268 30055 40064=
94316 46/// /3405 10289 20231 39592 40052=
94317 46/// /2605 10301 20192 39482 40049=
94319 46/// /3004 10320 20175 39724 40043=
94326 46/// /1602 10250 20172 39481 40079=
94327 46/// /2304 10298 20104 39710 40073=
94332 46/// /1309 10295 20101 39688 40063=
94346 46/// /0205 10261 20081 39866 40080=
94363 46/// /0406 10243 20160 39887 40100=
94367 46/// /0806 10254 20244 30064 40105=
94374 46/// /1804 10214 20172 30092 40109=
94388 46/// /1206 10231 20186 30108 40113=
94393 46/// /1314 10258 30083 40097 58019=
94394 46/// ///10 10247 30092 40100 58020=
94403 46/// /1711 10224 20199 30050 40085=
94430 46/// /1709 10320 20155 39491 40053=
94449 46/// /1013 10261 20149 39591 40104=
94461 46/// /1108 10281 20128 39418 40067=
94462 46/// /0000 10270 20166 39531 40068=
94510 46/// /0307 10310 20061 39744 40081=
94515 46/// /0105 10243 20051 39746 40089=
94552 46/// /1105 10177 20117 39654 40110=
94578 46/// /1905 10209 20180 30110 40121=
94584 46/// /1312 10228 2//// 30002 40111=
94600 46/// /1415 10175 20118 30005 40132=
94601 46/// /1118 10187 20136 30137 40153=
94602 46/// ///// 10213 20187 30062 40112=
94603 46/// /1411 10240 20138=
94604 46/// /1507 10197 20099 30128 40135=
94605 46/// /1706 10222 20162 30116 40120=
94607 46/// /1507=
94608 46/// /0803 10221 20152 30084 40113=
94609 46/// /1807 10209 20144 30080 40115=
94610 46/// /1209 10241 20094 30089 40112=
94612 46/// /2103 10196 20155 30058 40111=
94614 46/// /1405 10211 20169=
94615 46/// /1113 10231 20102=
94620 46/// /1310 10178 20107 39820 40127=
94637 46/// /0914 10247 20126 39706 40121=
94638 46/// /0906 10160 20107 30147 40179=
94647 46/// /1409 10189 20179 30041 40150=
94651 46/// /1515 10201 20182 30055 40130=
94653 46/// /1914 10199 20182 30091 40109=
94659 46/// /0111 10338 20005 39885 40075=
94672 46/// /2210 10254 20122 30078 40088=
94691 46/// /0206 10267 21062 39775 40092=
94693 46/// /1505 10277 20065 30029 40088=
94703 46/// /0000 10237 20001 39965 40086=
94710 46/// /0604 10230 21011 39851 40096=
94729 46/// /1405 10201 20015 39306 40134=
94750 46/// /3303 10158 20114 30010 40131=
94767 46/// /0105 10202 20172 30139 40145=
94776 46/// /0000 10162 20144 30133 40142=
94802 46/// /0707 10134 20097 30096 40178=
94804 46/// /1627 10189 2//// 30077 40115=
94821 46/// /1712 10175 20158 30039 40120=
94842 46/// /2604 10178 20158 30047 40145=
94847 46/// /2014=
94850 46/// /1609 10158 20133 30097 40142=
94865 46/// /2008 10200 20178 30108 40132=
94866 46/// /1906 10189 20176 39994 40132=
94907 46/// ///// 10204 20170=
94910 46/// /1102 10234 20083 39876 40119=
94926 46/// /1002 10185 20054 39496 40148=
94934 46/// /3611 10209 20202 30098 40121=
94935 46/// /3307 10230 20129 30084 40110=
94951 46/// /1402 10142 20114 30145 40160=
94954 46/// /1815 10153 20135 30029 40138=
94956 46/// /1806 10123 20110 30124 40150=
94974 46/// /1816 10136 20102 30123 40146=
94975 46/// /2105 10144 20112 30129 40162=
94983 46/// /0619 10178 20147 30112 40137=
94995 46/// /1011 10222 20188 30098 40106=
94996 46/// /3407 10217 20185 39943 40077=
94998 46/// /2738 10062 20034 39899 49909=
95205 46/// /0312 10283 20225 30055 40062=
95288 46/// /1319 10274 30061 40076 58015=
95307 46/// /2611 10305 20244 30060 40066=
95448 46/// /0906 10288 20142 39527 40071=
95458 46/// /0209 10304 21011 39824 40076=
95481 46/// /1105 10297 21051 30029 40072=
95527 46/// /0711 10267 20067 39859 40105=
95610 46/// /1110 10203 20098=
95611 46/// /1708 10174 20121 30119 40139=
95636 46/// /0908 10140 20106 39814 40166=
95638 46/// /0911 10154 20104 30009 40175=
95646 46/// /1408 10191 20174 39961 40144=
95666 46/// /1113 10274 20205 30061 40078=
95719 46/// /0913 10268 20027 39792 40113=
95762 46/// /1710 10205 20053 39669 40113=
95872 46/// /2013=
95909 46/// /3514 10137 20010 38105 40185=
95936 46/// /2005 10204 20183 30124 40133=
95954 46/// /1613 10153 20140 30032 40135=
95961 46/// /1709 10130 20096 30117 40158=
96001 32558 81106 10266 20245 39961 40108 52018 84572 333 56200 84620=
96009 31450 60000 10251 20240 30070 40105 52022 70522 82221 333 56000 57803 82814 84460 80860=
96011 32460 71802 10258 20231 30074 40100 52026 83571 333 56000 83618 85360=
96015 32456 60000 10257 20250 30089 40095 51016 84522 333 56000 84616=
96033 31457 80000 10268 20238 30098 40103 57020 70522 83927 333 56000 57903 81920 83617 80980=
96035 31440 62503 10254 20238 30090 40098 52017 70522 83576 333 56000 83618=
96073 21450 70000 10254 20242 30085 40099 51018 72162 84972 333 56000 57901 69907 84913 80959=
96075 32450 40000 10252 20250 30085 40095 52020 82571 333 56000 82618=
96087 32460 60000 10264 20244 30071 40116 51018 83531 333 56800 83614=
96091 32459 40000 10257 20240 30081 40105 52014 82111 333 56000 82817=
96109 32458 70000 10260 20236 30051 40088 52018 83578 333 56000 83615=
96145 31440 70205 10262 20244 30090 40093 53013 70522 84220 333 56800 57882 84816 87460 80857=
96163 32560 60202 10258 20253 30092 40100 52017 81531 333 56000 81620 83080=
96171 32456 70000 10256 20241 30072 40096 52017 84522 333 56000 84615=
96179 32459 73402 10251 20235 30058 40093 51015 83218 333 56000 57802 83817 87280 80850=
96195 31450 63502 10268 20241 30063 40093 52016 70522 82521 333 56000 82616 84460=
96207 32456 73204 10215 20185 39234 40140 52020 84531 333 56000 84617=
96221 31458 70000 10263 20243 30082 40096 52017 70522 83132 333 56999 83812 86080=
96237 32457 83203 10253 20234 30055 40096 51020 82516 333 56000 82617 84460 85280=
96249 21450 70000 10228 20227 30035 40096 52011 76266 85972 333 56700 57971 57871 60117 81917 84820 80981 80863=
96253 32558 71304 10264 20241 30075 40095 53014 83872 333 56000 57800 82820=
96295 32460 72305 10255 20210 39998 40100 51017 84521 333 56700 84615 84460=
96413 42565 72503 10254 20242 30066 40093 51011 70122 83531 333 83620 86365=
96421 41268 70603 10240 20231 30061 40097 72162 8357/ 333 81705 83616 87365=
96441 41163 81003 10240 20239 30067 40094 51011 76162 8452/ 333 81703 83616 88464=
96449 41430 72204 10238 20235 30078 40098 51015 76266 8456/ 333 84614 87365=
96465 41420 82003 10236 20236 30058 40092 52170 76362 8882/ 333 84810 85620 87464=
96471 41468 71503 10255 20243 30079 40082 70122 82848 333 81814 83364 87277=
96481 41462 63600 10248 20240 30072 40091 70122 82841 333 81817 86080=
96491 41464 60404 10268 20249 30073 40085 70122 82801 333 81816 86080=
96509 32458 51101 10270 20243 30078 40086 51012 83131 333 56000 83815=
96525 32458 50000 10262 20250 30082 40086 52014 82171 333 56000 82815=
96529 21335 80000 10227 20221 30080 40100 50020 76196 8612/ 333 56009 60337 86808 88460=
96557 21410 80902 10253 20241 30051 40099 52019 70562 8592/ 333 56409 57942 57841 69957 82910 83811 88460 80980 80857=
96559 21450 80000 10244 20238 30059 40096 52018 76162 8592/ 333 56609 57962 60037 81915 84814 88461 80973=
96581 21456 70000 10258 20247 30088 40095 51013 70262 83131 333 56000 69937 83812 84362 80850=
96595 21330 80000 10240 20233 30060 40103 52017 71062 885// 333 56099 69917 88608=
96615 32456 70000 10264 20246 30090 40101 52017 83131 333 56600 57862 83812 85362 80856=
96633 32558 73102 10252 20245 30084 40088 52009 81571 333 56000 81620 84460=
96645 32456 70000 10244 20237 30065 40097 52012 85521 333 56000 85611=
96655 21457 81501 10237 20230 30082 40112 50005 76166 86921 333 56000 57902 69977 81910 85610 86462 80967=
96685 21457 80404 10240 20237 30072 40093 51005 72162 8352/ 333 56009 60027 83618 88462=
96695 21458 81402 10237 20226 30083 40085 50005 72162 8642/ 333 56009 60027 86614=
96737 21450 82604 10250 20231 30053 40083 50009 72162 87521 333 56000 69957 87617 87460=
96739 476// 22305 10240 20241 30045 40101 52011 761// 333 1//// 2//// 59000=
96745 21456 72404 10252 20219 30094 40099 52010 70262 82571 333 56600 69907 82619 86460=
96749 21557 82205 10240 20223 30085 40098 52010 70262 8342/ 333 56009 69937 83620 88460=
96751 21557 82801 10197 20161 39034 40087 51014 72162 83427 333 56000 60027 83620 84460=
96791 32558 70000 10263 20244 30038 40089 52017 83511 333 56000 83620 84460=
96797 32557 70000 10265 20247 30082 40085 52017 84571 333 56000 84620=
96805 32559 62504 10285 20219 30087 40094 52014 81271 333 56000 57802 81820 84460 80860=
96837 21556 83602 10259 20236 30083 40084 51011 70562 8492/ 333 56009 57900 69907 81920 83820 88460=
96839 21456 82103 10256 20233 30080 40084 51010 70262 84572 333 56000 69907 84614 86460=
96925 21458 82702 10250 20245 30078 40083 52014 79596 84972 333 56000 60127 81917 83818 86460=
96933 21957 80000 10248 20238 30075 40078 51003 70262 8802/ 333 56009 60027 88460=
96935 21550 81603 10250 20230 30071 40075 53001 76166 8527/ 333 56009 57802 69927 85820 80860=
96937 21957 83403 10246 20241 30075 40078 52004 70262 8802/ 333 56009 60027 88460=
96973 21450 80000 10244 20233 30077 40080 52005 76166 82971 333 56000 57901 57802 60017 81919 81820 83460 80976 80850=
96987 32456 72306 10263 20216 30016 40067 52003 84528 333 56000 84618=
96995 46/// /2708 10255 20233 39791 40085=
96996 35/// /2607 10265 20220 30083 40087 51009 333 10303=
97008 21457 82203 10262 20244 30066 40087 52004 76262 84272 333 56000 60027 84618 86460=
97014 32560 50301 10246 20237 39997 40090 50005 83871 333 56000 82821=
97016 32560 60000 10262 20226 30077 40083 50002 81231 333 56000 57802 81820 85360 80858=
97028 32559 51303 10258 20248 30083 40085 53011 83421 333 56000 82620 83460=
97048 32560 50000 10249 20239 30048 40072 52011 83231 333 56000 57803 83820 80857=
97072 32457 50602 10264 20225 39998 40098 52009 82571 333 56000 82619=
97086 32560 53303 10265 20238 30056 40077 51006 82571 333 56000 82620 84360=
97096 32459 60000 10258 20246 30070 40078 52015 83221 333 56000 83817 83460=
97120 21459 70102 10248 20232 30063 40098 51012 72162 83271 333 56000 57802 60017 83818=
97126 45/// /0001 10253 20246 30037 40082 52013 7//// 333 1//// 2//// 5////=
97180 21457 70602 10250 20237 30073 40089 51007 76162 85222 333 56000 60127 85819 83460=
97182 21456 80303 10256 20245 30086 40088 51011 76062 8387/ 333 56009 57800 69987 82819 87459 808//=
97192 32457 82705 10274 20249 30033 40097 50005 8522/ 333 56009 57802 85816 88460 80857=
97230 21457 82717 10270 20247 30071 40076 52007 70262 84272 333 56600 57861 69947 84817 85360 80859=
97240 21457 53404 10250 20238 39966 40081 52001 70261 84131 333 56000 69927 84816=
97260 32458 50000 10257 20242 30058 40062 50006 84531 333 56000 84620=
97270 32456 70000 10270 20257 30066 40069 50005 84811 333 56000 83815=
97310 21458 70000 10256 20245 30054 40066 50002 70162 83221 333 56000 57803 60027 83817 86459 80856=
97320 32458 40000 10250 20238 30061 40073 50003 82201 333 56000 57801 82819 83080 80850=
97340 32550 70000 10256 20250 30061 40073 50014 82272 333 56000 82620 85360=
97372 32458 71802 10250 20245 39943 40074 50001 84222 333 56000 84815 86459=
97378 45/// /0000 10242 20242 39908 40118 52007 7//// 333 1//// 2//// 59000=
97380 21440 60000 10260 20253 30050 40072 51009 72162 83272 333 56600 69907 83814=
97430 32459 62703 10262 20238 30057 40096 52004 83232 333 56700 57872 83818 80860=
97460 32459 70000 10245 20231 30065 40087 50004 84872 333 56000 57802 83818 80858=
97502 21457 60604 10234 20224 30080 40080 50001 70162 84831 333 56000 69917 83812=
97530 22457 71006 10277 20243 30070 40074 55002 83262 333 56000 57802 69907 83814 84360 80833=
97560 21459 80000 10241 20238 30071 40083 50003 72162 82827 333 56000 57803 69917 82818 86460 88279 80860=
97570 32458 80000 10244 20228 30075 40080 56001 8117/ 333 56009 81812 88361=
97580 32458 50000 10247 20229 30072 40078 57007 82931 333 56000 57901 57802 81914 81815 83361 80970 80860=
97600 32460 52801 10264 20237 30079 40081 50008 82231 333 56000 57803 82819 83360 80859=
97630 32450 80503 10254 20233 39929 40090 57002 84972 333 56000 57901 81911 83812 84360 80975=
97686 21320 81604 10170 20165 38346 40064 54000 76062 86727 333 56000 69937 86707 87459=
97690 32458 60000 10240 20237 39979 40075 58006 84731 333 56000 84811 83080=
97700 21440 81903 10240 20236 30058 40074 52006 84971 333 56000 57903 60177 81917 83618 85457 80967=
97722 32462 70000 10250 20237 30065 40075 53003 84872 333 56000 57801 83819 80857=
97724 21430 82811 10237 20230 30072 40091 52021 76362 8592/ 333 56609 57961 60217 81915 84616 88460 80980=
97748 31457 63503 10276 20252 30074 40076 56002 71799 83936 333 56600 57961 57862 81914 82815 80950 80840=
97760 21440 83506 10266 20243 30072 40083 57001 76062 84832 333 56000 57901 60097 82915 83617 80890=
97796 21340 82802 10238 20237 30047 40095 57016 70262 83672 333 56000 60057 83708 88080=
97810 32450 70000 10238 20234 30047 40079 50000 84832 333 56000 57801 83819 85360 80850=
97876 21358 70000 10256 20249 30052 40084 58007 71322 86972 333 56000 57901 82908 84609 80960=
97900 32565 62604 10260 20246 30051 40069 52004 82270 333 56600 57862 82820 85460 80830=
97980 32457 60000 10250 20243 30074 40078 57001 85842 333 56000 82816 83620=